createdAt,value
2022-12-23T00:03:21.307Z,5.38
2022-12-23T00:08:23.647Z,5.43
2022-12-23T00:13:43.700Z,5.42
2022-12-23T00:18:45.267Z,5.42
2022-12-23T00:23:48.755Z,5.40
2022-12-23T00:28:50.861Z,5.42
2022-12-23T00:33:54.201Z,5.41
2022-12-23T00:39:16.036Z,5.42
2022-12-23T00:44:17.634Z,5.43
2022-12-23T00:49:39.387Z,5.43
2022-12-23T00:54:41.258Z,5.44
2022-12-23T00:59:42.913Z,5.41
2022-12-23T01:05:03.145Z,5.41
2022-12-23T01:10:05.005Z,5.44
2022-12-23T01:15:07.163Z,5.45
2022-12-23T01:20:09.077Z,5.46
2022-12-23T01:25:10.935Z,5.48
2022-12-23T01:30:12.588Z,5.48
2022-12-23T01:35:14.083Z,5.49
2022-12-23T01:40:15.697Z,5.48
2022-12-23T01:45:27.577Z,5.48
2022-12-23T01:50:35.195Z,5.50
2022-12-23T01:55:42.475Z,5.47
2022-12-23T02:01:02.988Z,5.49
2022-12-23T02:06:28.167Z,5.50
2022-12-23T02:11:45.824Z,5.45
2022-12-23T02:16:58.388Z,5.42
2022-12-23T02:22:02.577Z,5.43
2022-12-23T02:27:15.688Z,5.43
2022-12-23T02:32:36.285Z,5.44
2022-12-23T02:37:40.436Z,5.46
2022-12-23T02:43:12.365Z,5.45
2022-12-23T02:48:22.104Z,5.48
2022-12-23T02:53:35.212Z,5.48
2022-12-23T02:58:44.491Z,5.49
2022-12-23T03:03:48.079Z,5.47
2022-12-23T03:08:52.194Z,5.48
2022-12-23T03:14:08.925Z,5.47
2022-12-23T03:19:10.354Z,5.46
2022-12-23T03:24:30.762Z,5.44
2022-12-23T03:29:48.834Z,5.46
2022-12-23T03:34:55.033Z,5.45
2022-12-23T03:40:05.233Z,5.46
2022-12-23T03:45:38.050Z,5.42
2022-12-23T03:50:39.940Z,5.43
2022-12-23T03:55:47.418Z,5.41
2022-12-23T04:00:59.881Z,5.40
2022-12-23T04:06:04.948Z,5.41
2022-12-23T04:11:06.693Z,5.47
2022-12-23T04:16:08.333Z,5.41
2022-12-23T04:21:09.858Z,5.43
2022-12-23T04:26:11.335Z,5.38
2022-12-23T04:31:12.860Z,5.41
2022-12-23T04:36:14.431Z,5.38
2022-12-23T04:41:15.937Z,5.40
2022-12-23T04:46:18.397Z,5.40
2022-12-23T04:51:19.941Z,5.38
2022-12-23T04:56:21.420Z,5.38
2022-12-23T05:01:23.035Z,5.39
2022-12-23T05:06:24.775Z,5.37
2022-12-23T05:11:26.378Z,5.35
2022-12-23T05:16:27.921Z,5.39
2022-12-23T05:21:29.490Z,5.31
2022-12-23T05:26:30.950Z,5.32
2022-12-23T05:31:32.855Z,5.28
2022-12-23T05:36:34.383Z,5.22
2022-12-23T05:41:35.847Z,5.18
2022-12-23T05:46:37.452Z,5.10
2022-12-23T05:51:38.962Z,5.11
2022-12-23T05:56:40.737Z,5.07
2022-12-23T06:01:42.975Z,5.01
2022-12-23T06:06:44.581Z,4.98
2022-12-23T06:11:46.058Z,4.98
2022-12-23T06:16:47.617Z,5.00
2022-12-23T06:21:49.159Z,4.99
2022-12-23T06:26:56.496Z,4.99
2022-12-23T06:31:58.761Z,5.01
2022-12-23T06:37:00.655Z,5.01
2022-12-23T06:42:02.131Z,5.02
2022-12-23T06:47:03.660Z,5.05
2022-12-23T06:52:05.676Z,5.01
2022-12-23T06:57:07.157Z,5.00
2022-12-23T07:02:12.211Z,5.00
2022-12-23T07:07:13.848Z,5.00
2022-12-23T07:12:15.361Z,4.95
2022-12-23T07:17:17.038Z,4.92
2022-12-23T07:22:18.515Z,4.88
2022-12-23T07:27:20.051Z,4.89
2022-12-23T07:32:21.599Z,4.90
2022-12-23T07:37:23.217Z,4.94
2022-12-23T07:42:44.046Z,4.93
2022-12-23T07:47:46.250Z,4.93
2022-12-23T07:52:47.789Z,4.95
2022-12-23T07:57:50.469Z,4.98
2022-12-23T08:02:52.147Z,4.99
2022-12-23T08:07:53.845Z,5.05
2022-12-23T08:12:55.529Z,5.06
2022-12-23T08:17:57.091Z,5.07
2022-12-23T08:22:58.631Z,5.09
2022-12-23T08:28:00.160Z,5.12
2022-12-23T08:33:01.623Z,5.12
2022-12-23T08:38:03.110Z,5.14
2022-12-23T08:43:04.576Z,5.23
2022-12-23T08:48:07.054Z,5.22
2022-12-23T08:53:09.117Z,5.22
2022-12-23T08:58:12.160Z,5.32
2022-12-23T09:03:13.785Z,5.38
2022-12-23T09:08:15.445Z,5.45
2022-12-23T09:13:26.197Z,5.46
2022-12-23T09:18:29.517Z,5.56
2022-12-23T09:23:31.545Z,5.64
2022-12-23T09:28:33.117Z,5.69
2022-12-23T09:33:35.024Z,5.79
2022-12-23T09:38:36.718Z,5.83
2022-12-23T09:43:46.845Z,5.86
2022-12-23T09:49:08.458Z,5.86
2022-12-23T09:54:16.805Z,5.87
2022-12-23T09:59:37.155Z,5.84
2022-12-23T10:05:09.484Z,5.98
2022-12-23T10:10:20.486Z,6.21
2022-12-23T10:15:37.255Z,6.15
2022-12-23T10:20:48.820Z,6.19
2022-12-23T10:25:52.263Z,6.26
2022-12-23T10:31:31.059Z,6.36
2022-12-23T10:36:37.502Z,6.58
2022-12-23T10:42:08.510Z,6.64
2022-12-23T10:47:09.905Z,6.85
2022-12-23T10:52:23.760Z,6.93
2022-12-23T10:57:25.920Z,6.91
2022-12-23T11:02:27.555Z,7.04
2022-12-23T11:07:46.701Z,7.11
2022-12-23T11:12:51.341Z,7.28
2022-12-23T11:18:01.955Z,7.26
2022-12-23T11:23:05.768Z,7.26
2022-12-23T11:28:15.284Z,7.24
2022-12-23T11:33:31.375Z,7.18
2022-12-23T11:38:35.258Z,7.12
2022-12-23T11:43:39.241Z,7.14
2022-12-23T11:48:40.749Z,7.08
2022-12-23T11:53:43.092Z,7.01
2022-12-23T11:58:53.207Z,6.95
2022-12-23T12:03:56.669Z,6.88
2022-12-23T12:09:01.745Z,6.81
2022-12-23T12:14:06.311Z,6.75
2022-12-23T12:19:21.033Z,6.88
2022-12-23T12:24:32.533Z,6.92
2022-12-23T12:29:54.499Z,7.00
2022-12-23T12:35:00.796Z,7.17
2022-12-23T12:40:28.301Z,7.21
2022-12-23T12:45:39.516Z,7.17
2022-12-23T12:50:44.107Z,7.21
2022-12-23T12:55:52.956Z,7.25
2022-12-23T13:01:21.042Z,7.23
2022-12-23T13:06:38.126Z,7.21
2022-12-23T13:11:55.148Z,7.23
2022-12-23T13:17:32.137Z,7.23
2022-12-23T13:22:34.181Z,7.18
2022-12-23T13:27:43.612Z,7.20
2022-12-23T13:33:07.106Z,7.07
2022-12-23T13:38:23.178Z,7.06
2022-12-23T13:43:29.614Z,7.06
2022-12-23T13:48:59.954Z,7.04
2022-12-23T13:54:14.383Z,7.11
2022-12-23T13:59:16.658Z,7.08
2022-12-23T14:04:56.259Z,7.05
2022-12-23T14:10:08.880Z,7.02
2022-12-23T14:15:28.515Z,6.96
2022-12-23T14:20:38.938Z,6.89
2022-12-23T14:25:55.919Z,6.90
2022-12-23T14:30:58.131Z,6.89
2022-12-23T14:36:26.183Z,6.89
2022-12-23T14:41:51.948Z,6.85
2022-12-23T14:46:55.493Z,6.83
2022-12-23T14:51:57.029Z,6.78
2022-12-23T14:57:13.535Z,6.74
2022-12-23T15:02:26.796Z,6.71
2022-12-23T15:07:33.704Z,6.66
2022-12-23T15:12:39.334Z,6.64
2022-12-23T15:17:41.574Z,6.61
2022-12-23T15:22:45.364Z,6.61
2022-12-23T15:27:47.228Z,6.62
2022-12-23T15:32:56.245Z,6.59
2022-12-23T15:37:59.811Z,6.59
2022-12-23T15:43:02.725Z,6.57
2022-12-23T15:48:05.970Z,6.50
2022-12-23T15:53:09.247Z,6.50
2022-12-23T15:58:23.349Z,6.44
2022-12-23T16:03:32.196Z,6.42
2022-12-23T16:08:34.158Z,6.36
2022-12-23T16:13:38.218Z,6.38
2022-12-23T16:18:47.564Z,6.36
2022-12-23T16:23:52.285Z,6.32
2022-12-23T16:28:59.256Z,6.29
2022-12-23T16:34:07.029Z,6.30
2022-12-23T16:39:22.728Z,6.27
2022-12-23T16:44:24.221Z,6.24
2022-12-23T16:49:33.225Z,6.23
2022-12-23T16:54:35.352Z,6.17
2022-12-23T16:59:38.878Z,6.16
2022-12-23T17:04:40.352Z,6.13
2022-12-23T17:09:41.911Z,6.11
2022-12-23T17:14:43.423Z,6.04
2022-12-23T17:19:45.278Z,6.09
2022-12-23T17:24:46.820Z,6.07
2022-12-23T17:29:48.368Z,6.02
2022-12-23T17:34:49.953Z,6.04
2022-12-23T17:39:51.498Z,6.00
2022-12-23T17:44:54.048Z,6.02
2022-12-23T17:49:55.503Z,5.98
2022-12-23T17:54:57.033Z,5.94
2022-12-23T17:59:58.629Z,5.95
2022-12-23T18:05:00.117Z,5.95
2022-12-23T18:10:01.654Z,5.94
2022-12-23T18:15:06.092Z,5.94
2022-12-23T18:20:16.273Z,5.96
2022-12-23T18:25:24.296Z,5.94
2022-12-23T18:30:25.867Z,5.96
2022-12-23T18:35:29.401Z,5.89
2022-12-23T18:40:32.888Z,5.88
2022-12-23T18:45:49.156Z,5.89
2022-12-23T18:50:53.864Z,5.83
2022-12-23T18:55:55.456Z,5.79
2022-12-23T19:00:57.087Z,5.75
2022-12-23T19:06:06.332Z,5.71
2022-12-23T19:11:16.932Z,5.69
2022-12-23T19:16:22.010Z,5.62
2022-12-23T19:21:24.052Z,5.63
2022-12-23T19:26:25.714Z,5.60
2022-12-23T19:31:27.332Z,5.59
2022-12-23T19:36:28.951Z,5.58
2022-12-23T19:41:30.626Z,5.60
2022-12-23T19:46:32.117Z,5.52
2022-12-23T19:51:33.634Z,5.52
2022-12-23T19:56:35.268Z,5.49
2022-12-23T20:01:36.794Z,5.51
2022-12-23T20:06:40.150Z,5.44
2022-12-23T20:11:44.806Z,5.48
2022-12-23T20:16:48.257Z,5.48
2022-12-23T20:21:50.341Z,5.48
2022-12-23T20:26:52.041Z,5.49
2022-12-23T20:31:53.536Z,5.45
2022-12-23T20:36:55.052Z,5.46
2022-12-23T20:41:57.348Z,5.46
2022-12-23T20:46:58.901Z,5.45
2022-12-23T20:52:01.063Z,5.43
2022-12-23T20:57:02.910Z,5.46
2022-12-23T21:02:04.551Z,5.44
2022-12-23T21:07:06.387Z,5.41
2022-12-23T21:12:07.972Z,5.43
2022-12-23T21:17:09.489Z,5.42
2022-12-23T21:22:11.161Z,5.38
2022-12-23T21:27:12.758Z,5.40
2022-12-23T21:32:14.273Z,5.39
2022-12-23T21:37:15.738Z,5.37
2022-12-23T21:42:17.215Z,5.39
2022-12-23T21:47:18.815Z,5.36
2022-12-23T21:52:20.429Z,5.34
2022-12-23T21:57:21.943Z,5.37
2022-12-23T22:02:23.465Z,5.34
2022-12-23T22:07:25.002Z,5.30
2022-12-23T22:12:26.521Z,5.28
2022-12-23T22:17:28.037Z,5.27
2022-12-23T22:22:30.127Z,5.23
2022-12-23T22:27:31.686Z,5.25
2022-12-23T22:32:36.558Z,5.26
2022-12-23T22:37:40.573Z,5.19
2022-12-23T22:42:42.098Z,5.20
2022-12-23T22:47:43.678Z,5.18
2022-12-23T22:52:45.175Z,5.19
2022-12-23T22:57:46.688Z,5.18
2022-12-23T23:02:48.194Z,5.20
2022-12-23T23:07:49.748Z,5.18
2022-12-23T23:12:51.444Z,5.20
2022-12-23T23:17:53.001Z,5.17
2022-12-23T23:22:54.553Z,5.16
2022-12-23T23:27:56.081Z,5.11
2022-12-23T23:32:57.599Z,5.16
2022-12-23T23:37:59.241Z,5.21
2022-12-23T23:43:00.923Z,5.17
2022-12-23T23:48:02.453Z,5.20
2022-12-23T23:53:04.124Z,5.16
2022-12-23T23:58:07.066Z,5.17
